This is the latest recevied weather packets stored in our database for station/object G6FJI-13. If no packets are shown the sender has not sent any weather packets the latest 10 day(s).
| Time | Temp. | Humidity | Pressure | Rain* | Wind** | Luminosity | Snow |
|---|---|---|---|---|---|---|---|
| 1777804456 | 16.11° C | 74% | 1013.1 hPa | 0 mm | - | 330 W/m² | - |
| 1777803826 | 15.56° C | 77% | 1012.8 hPa | 0 mm | - | 204 W/m² | - |
| 1777791190 | 11.67° C | 95% | 1012.7 hPa | 0 mm | - | 37 W/m² | - |
| 1777789992 | 11.11° C | 96% | 1012.7 hPa | 0 mm | - | 44 W/m² | - |
| 1777789347 | 11.11° C | 96% | 1012.7 hPa | 0 mm | - | 39 W/m² | - |
| 1777788149 | 11.11° C | 96% | 1012.7 hPa | 0 mm | - | 22 W/m² | - |
| 1777782756 | 10.56° C | 97% | 1012.3 hPa | 0 mm | - | 1 W/m² | - |
| 1777780894 | 11.11° C | 97% | 1012.2 hPa | 0 mm | - | 0 W/m² | - |
| 1777779162 | 11.67° C | 97% | 1012.3 hPa | 0 mm | - | 0 W/m² | - |
| 1777775960 | 11.67° C | 97% | 1012.2 hPa | 0 mm | - | 0 W/m² | - |
| 1777774206 | 12.22° C | 97% | 1012.4 hPa | 0 mm | - | 0 W/m² | - |
| 1777773582 | 12.22° C | 97% | 1012.5 hPa | 0 mm | - | 0 W/m² | - |
| 1777769409 | 12.22° C | 97% | 1012.9 hPa | 0 mm | - | 0 W/m² | - |
| 1777768766 | 12.22° C | 98% | 1013 hPa | 0 mm | - | 0 W/m² | - |
| 1777765812 | 12.78° C | 98% | 1013.3 hPa | 0 mm | - | 0 W/m² | - |
| 1777762170 | 12.78° C | 98% | 1013.4 hPa | 0 mm | - | 0 W/m² | - |
| 1777758572 | 13.33° C | 98% | 1013.4 hPa | 0 mm | - | 0 W/m² | - |
| 1777758017 | 13.33° C | 98% | 1013.7 hPa | 0 mm | - | 0 W/m² | - |
| 1777755551 | 13.89° C | 98% | 1014 hPa | 0 mm | - | 0 W/m² | - |
| 1777751961 | 13.89° C | 98% | 1014.2 hPa | 0 mm | - | 0 W/m² | - |
| 1777751338 | 13.89° C | 98% | 1014.1 hPa | 0 mm | - | 0 W/m² | - |
| 1777746541 | 14.44° C | 97% | 1014.3 hPa | 0 mm | - | 22 W/m² | - |
| 1777744122 | 14.44° C | 96% | 1014.9 hPa | 0.76 mm | - | 6 W/m² | - |
| 1777742923 | 13.89° C | 96% | 1014.8 hPa | 2.29 mm | - | 14 W/m² | - |
| 1777741724 | 14.44° C | 95% | 1015.3 hPa | 3.3 mm | - | 15 W/m² | - |
* Rain latest hour (hover to see other rain measurements)
** Current wind speed in m/s (hover to see current wind gust speed)